Time;durP1;ratioP1;P1;durP2;ratioP2;P2;SDS_P1;SDS_P2;PMS_P1;PMS_P2;Temp;Humidity;BMP_temperature;BMP_pressure;BME280_temperature;BME280_humidity;BME280_pressure;Samples;Min_cycle;Max_cycle;Signal;HPM_P1;HPM_P2
2023/02/10 00:02:37;;;;;;;17.80;9.27;;;;;;;;;;10462366;28;20144;-83
2023/02/10 00:07:41;;;;;;;19.52;8.95;;;;;;;;;;10467920;28;20041;-87
2023/02/10 00:12:45;;;;;;;20.40;8.93;;;;;;;;;;10453435;28;20055;-86
2023/02/10 00:17:50;;;;;;;14.10;7.70;;;;;;;;;;10457644;28;20179;-84
2023/02/10 00:22:53;;;;;;;22.67;9.98;;;;;;;;;;10451694;28;20037;-87
2023/02/10 00:27:57;;;;;;;18.73;8.75;;;;;;;;;;10455324;28;20049;-88
2023/02/10 00:33:02;;;;;;;17.92;8.43;;;;;;;;;;10468703;28;20514;-88
2023/02/10 00:38:06;;;;;;;16.40;8.50;;;;;;;;;;10468615;28;20040;-85
2023/02/10 00:43:09;;;;;;;18.13;8.18;;;;;;;;;;10460087;28;20037;-86
2023/02/10 00:48:14;;;;;;;17.35;8.50;;;;;;;;;;10478655;28;20056;-87
2023/02/10 00:53:19;;;;;;;14.13;7.35;;;;;;;;;;10456181;28;20083;-87
2023/02/10 00:58:22;;;;;;;13.70;6.28;;;;;;;;;;10452006;28;20040;-84
2023/02/10 01:03:27;;;;;;;12.90;6.85;;;;;;;;;;10452828;28;20066;-84
2023/02/10 01:08:31;;;;;;;12.50;6.70;;;;;;;;;;10444838;28;20037;-84
2023/02/10 01:13:36;;;;;;;15.20;7.35;;;;;;;;;;10459645;28;20491;-85
2023/02/10 01:18:42;;;;;;;10.73;6.25;;;;;;;;;;10453658;28;20507;-85
2023/02/10 01:23:46;;;;;;;12.43;5.97;;;;;;;;;;10459414;28;20052;-85
2023/02/10 01:28:50;;;;;;;11.68;6.10;;;;;;;;;;10462259;28;20582;-82
2023/02/10 01:33:58;;;;;;;13.20;6.03;;;;;;;;;;10451188;28;20068;-82
2023/02/10 01:39:01;;;;;;;10.77;5.65;;;;;;;;;;10449626;28;20055;-85
2023/02/10 01:44:46;;;;;;;9.30;4.80;;;;;;;;;;10450871;28;20115;-88
2023/02/10 01:49:51;;;;;;;10.95;5.40;;;;;;;;;;10445629;28;20045;-83
2023/02/10 01:55:02;;;;;;;8.68;4.68;;;;;;;;;;10451491;28;20048;-82
2023/02/10 02:00:10;;;;;;;10.05;5.90;;;;;;;;;;10443467;28;20136;-83
2023/02/10 02:05:28;;;;;;;13.15;7.18;;;;;;;;;;10434175;28;20041;-85
2023/02/10 02:10:40;;;;;;;;;;;;;;;;;;10463543;28;20080;-86
2023/02/10 02:15:51;;;;;;;11.93;5.85;;;;;;;;;;10451192;28;19921;-88
2023/02/10 02:21:30;;;;;;;10.05;5.38;;;;;;;;;;10425607;28;20048;-83
2023/02/10 02:27:05;;;;;;;9.13;5.22;;;;;;;;;;10434589;28;20705;-82
2023/02/10 02:32:15;;;;;;;7.07;4.50;;;;;;;;;;10442785;28;20037;-82
2023/02/10 02:37:23;;;;;;;10.77;5.55;;;;;;;;;;10449581;28;20086;-82
2023/02/10 02:42:28;;;;;;;9.40;5.55;;;;;;;;;;10439898;28;20032;-82
2023/02/10 02:47:56;;;;;;;9.18;4.80;;;;;;;;;;10433916;28;20044;-83
2023/02/10 02:53:20;;;;;;;9.88;4.80;;;;;;;;;;10448333;28;20743;-82
2023/02/10 02:58:31;;;;;;;11.40;5.50;;;;;;;;;;10430738;28;20064;-85
2023/02/10 03:03:37;;;;;;;10.77;5.65;;;;;;;;;;10449345;28;20037;-86
2023/02/10 03:08:43;;;;;;;7.78;4.68;;;;;;;;;;10431568;28;20163;-89
2023/02/10 03:13:48;;;;;;;8.75;4.88;;;;;;;;;;10452945;28;20179;-83
2023/02/10 03:18:53;;;;;;;8.83;5.23;;;;;;;;;;10435638;28;20079;-83
2023/02/10 03:24:00;;;;;;;9.63;5.47;;;;;;;;;;10436924;28;20040;-83
2023/02/10 03:29:05;;;;;;;8.65;5.00;;;;;;;;;;10428902;28;20048;-82
2023/02/10 03:34:11;;;;;;;10.40;5.43;;;;;;;;;;10428617;28;20148;-82
2023/02/10 03:39:16;;;;;;;9.35;5.35;;;;;;;;;;10439748;28;20056;-83
2023/02/10 03:44:20;;;;;;;9.07;5.15;;;;;;;;;;10443216;28;20079;-83
2023/02/10 03:49:25;;;;;;;9.05;4.82;;;;;;;;;;10454292;28;20520;-83
2023/02/10 03:54:28;;;;;;;8.80;5.18;;;;;;;;;;10432942;28;20060;-82
2023/02/10 03:59:32;;;;;;;9.25;5.57;;;;;;;;;;10470908;28;20079;-83
2023/02/10 04:04:40;;;;;;;9.93;5.43;;;;;;;;;;10432478;28;20510;-83
2023/02/10 04:09:43;;;;;;;10.10;6.22;;;;;;;;;;10441902;28;20133;-83
2023/02/10 04:14:47;;;;;;;11.02;5.82;;;;;;;;;;10448347;28;20074;-82
2023/02/10 04:19:52;;;;;;;10.07;6.03;;;;;;;;;;10463473;28;20037;-82
2023/02/10 04:24:58;;;;;;;10.77;5.90;;;;;;;;;;10449478;28;20589;-83
2023/02/10 04:30:02;;;;;;;11.95;6.55;;;;;;;;;;10449354;28;20042;-82
2023/02/10 04:35:09;;;;;;;13.88;6.72;;;;;;;;;;10467619;28;20044;-82
2023/02/10 04:40:13;;;;;;;13.90;7.85;;;;;;;;;;10441694;28;20120;-83
2023/02/10 04:45:19;;;;;;;13.18;7.07;;;;;;;;;;10459557;28;20065;-82
2023/02/10 04:50:26;;;;;;;11.60;6.53;;;;;;;;;;10467514;28;20117;-85
2023/02/10 04:55:29;;;;;;;12.95;7.18;;;;;;;;;;10461224;28;20063;-85
2023/02/10 05:00:39;;;;;;;9.07;5.72;;;;;;;;;;10480119;28;20048;-85
2023/02/10 05:05:44;;;;;;;9.00;5.50;;;;;;;;;;10453646;28;20044;-82
2023/02/10 05:10:48;;;;;;;9.63;5.70;;;;;;;;;;10450295;28;20102;-83
2023/02/10 05:15:52;;;;;;;9.27;5.75;;;;;;;;;;10437011;28;20072;-83
2023/02/10 05:20:57;;;;;;;10.77;6.10;;;;;;;;;;10448239;28;20070;-84
2023/02/10 05:26:01;;;;;;;11.07;6.88;;;;;;;;;;10456473;28;20067;-84
2023/02/10 05:31:06;;;;;;;15.30;6.97;;;;;;;;;;10449389;28;20049;-84
2023/02/10 05:36:11;;;;;;;15.33;7.70;;;;;;;;;;10443599;28;20040;-85
2023/02/10 05:41:17;;;;;;;10.40;6.38;;;;;;;;;;10461658;28;20547;-86
2023/02/10 05:46:21;;;;;;;;;;;;;;;;;;10469036;28;20044;-85
2023/02/10 05:51:26;;;;;;;10.88;6.22;;;;;;;;;;10449501;28;19920;-84
2023/02/10 05:56:29;;;;;;;10.77;5.75;;;;;;;;;;10446739;28;20041;-87
2023/02/10 06:01:33;;;;;;;11.07;5.97;;;;;;;;;;10457996;28;20624;-84
2023/02/10 06:06:39;;;;;;;12.57;6.25;;;;;;;;;;10452240;28;20063;-84
2023/02/10 06:11:43;;;;;;;12.27;6.63;;;;;;;;;;10446922;28;20533;-82
2023/02/10 06:16:48;;;;;;;12.82;7.53;;;;;;;;;;10438247;28;20587;-83
2023/02/10 06:21:56;;;;;;;12.30;7.35;;;;;;;;;;10457647;28;20408;-84
2023/02/10 06:27:04;;;;;;;12.82;7.30;;;;;;;;;;10443331;28;20163;-82
2023/02/10 06:32:17;;;;;;;13.05;6.93;;;;;;;;;;10439886;28;20131;-81
2023/02/10 06:37:25;;;;;;;13.68;7.47;;;;;;;;;;10440740;28;20128;-84
2023/02/10 06:42:29;;;;;;;11.82;6.85;;;;;;;;;;10446376;28;20200;-84
2023/02/10 06:47:33;;;;;;;10.10;6.05;;;;;;;;;;10438675;28;20323;-83
2023/02/10 06:52:40;;;;;;;14.45;6.70;;;;;;;;;;10451284;28;20044;-84
2023/02/10 06:57:44;;;;;;;14.00;7.88;;;;;;;;;;10442674;28;20044;-84
2023/02/10 07:02:47;;;;;;;13.07;7.68;;;;;;;;;;10457847;28;20050;-86
2023/02/10 07:07:58;;;;;;;19.02;9.35;;;;;;;;;;10451545;28;20044;-86
2023/02/10 07:13:04;;;;;;;19.17;9.75;;;;;;;;;;10457082;28;20044;-86
2023/02/10 07:18:07;;;;;;;18.90;9.05;;;;;;;;;;10454803;28;20044;-87
2023/02/10 07:23:12;;;;;;;18.80;9.30;;;;;;;;;;10466906;28;20044;-84
2023/02/10 07:28:18;;;;;;;16.92;8.73;;;;;;;;;;10461743;28;20040;-83
2023/02/10 07:33:21;;;;;;;16.98;8.70;;;;;;;;;;10453643;28;20134;-85
2023/02/10 07:38:29;;;;;;;16.23;8.65;;;;;;;;;;10453688;28;20455;-85
2023/02/10 07:43:33;;;;;;;14.82;7.53;;;;;;;;;;10462860;28;20042;-85
2023/02/10 07:48:43;;;;;;;12.52;6.50;;;;;;;;;;10451709;28;20040;-85
2023/02/10 07:53:49;;;;;;;13.52;7.38;;;;;;;;;;10450330;28;20045;-85
2023/02/10 07:58:53;;;;;;;13.07;7.13;;;;;;;;;;10462738;28;20040;-84
2023/02/10 08:03:59;;;;;;;13.85;7.45;;;;;;;;;;10454257;28;20529;-85
2023/02/10 08:09:05;;;;;;;16.80;7.95;;;;;;;;;;10459629;28;20347;-83
2023/02/10 08:14:09;;;;;;;13.82;7.35;;;;;;;;;;10465811;28;20123;-85
2023/02/10 08:19:13;;;;;;;13.68;7.28;;;;;;;;;;10458495;28;20534;-85
2023/02/10 08:24:17;;;;;;;14.20;7.40;;;;;;;;;;10441433;28;20037;-85
2023/02/10 08:29:21;;;;;;;17.05;8.20;;;;;;;;;;10451268;28;20048;-86
2023/02/10 08:34:27;;;;;;;11.77;6.40;;;;;;;;;;10458294;28;20041;-87
2023/02/10 08:39:35;;;;;;;12.15;6.90;;;;;;;;;;10438860;28;20048;-89
2023/02/10 08:44:40;;;;;;;18.08;9.68;;;;;;;;;;10468291;28;20036;-86
2023/02/10 08:49:44;;;;;;;19.95;10.35;;;;;;;;;;10467481;28;20178;-86
2023/02/10 08:54:51;;;;;;;14.45;8.05;;;;;;;;;;10470423;28;20599;-86
2023/02/10 08:59:55;;;;;;;14.77;7.35;;;;;;;;;;10457982;28;20512;-86
2023/02/10 09:04:59;;;;;;;12.82;7.65;;;;;;;;;;10441871;28;20046;-86
2023/02/10 09:10:15;;;;;;;11.50;6.88;;;;;;;;;;10456849;28;20232;-86
2023/02/10 09:15:19;;;;;;;11.98;7.38;;;;;;;;;;10462896;28;20639;-88
2023/02/10 09:20:23;;;;;;;9.98;6.30;;;;;;;;;;10469921;28;20109;-88
2023/02/10 09:25:28;;;;;;;9.30;5.88;;;;;;;;;;10467471;28;20577;-88
2023/02/10 09:30:32;;;;;;;8.00;4.97;;;;;;;;;;10465367;28;20486;-88
2023/02/10 09:35:36;;;;;;;10.30;5.95;;;;;;;;;;10452273;28;20454;-87
2023/02/10 09:41:10;;;;;;;13.00;7.03;;;;;;;;;;10466120;28;20041;-87
2023/02/10 09:46:20;;;;;;;10.48;6.07;;;;;;;;;;10435285;28;20067;-85
2023/02/10 09:51:36;;;;;;;15.55;8.50;;;;;;;;;;10461166;28;20041;-85
2023/02/10 09:56:41;;;;;;;11.60;7.35;;;;;;;;;;10454906;28;20040;-91
2023/02/10 10:01:48;;;;;;;15.93;8.88;;;;;;;;;;10463646;28;20736;-90
2023/02/10 10:06:55;;;;;;;14.63;8.77;;;;;;;;;;10475637;28;20132;-87
2023/02/10 10:12:01;;;;;;;12.35;7.25;;;;;;;;;;10475951;28;20055;-88
2023/02/10 10:17:26;;;;;;;;;;;;;;;;;;10445160;28;20523;-91
2023/02/10 10:22:41;;;;;;;9.13;4.90;;;;;;;;;;10459021;28;19921;-85
2023/02/10 10:28:04;;;;;;;15.50;7.57;;;;;;;;;;10430712;28;20044;-85
2023/02/10 10:33:27;;;;;;;13.45;8.23;;;;;;;;;;10431687;28;20053;-85
2023/02/10 10:38:34;;;;;;;17.60;10.02;;;;;;;;;;10440016;28;20048;-84
2023/02/10 10:43:49;;;;;;;18.33;10.07;;;;;;;;;;10440172;28;20045;-85
2023/02/10 10:48:56;;;;;;;21.20;11.93;;;;;;;;;;10451767;28;20033;-85
2023/02/10 10:54:08;;;;;;;;;;;;;;;;;;10435433;28;20064;-84
2023/02/10 10:59:20;;;;;;;22.00;12.57;;;;;;;;;;10459172;28;20397;-85
2023/02/10 11:04:28;;;;;;;30.63;17.00;;;;;;;;;;10435702;28;20136;-84
2023/02/10 11:09:43;;;;;;;33.35;18.27;;;;;;;;;;10454146;28;20704;-84
2023/02/10 11:14:53;;;;;;;26.05;15.13;;;;;;;;;;10442267;28;20037;-84
2023/02/10 11:19:59;;;;;;;21.42;12.25;;;;;;;;;;10454190;28;20056;-84
2023/02/10 11:25:25;;;;;;;25.00;13.52;;;;;;;;;;10433329;28;20070;-84
2023/02/10 11:30:33;;;;;;;34.17;17.98;;;;;;;;;;10455943;28;20463;-84
2023/02/10 11:35:36;;;;;;;35.42;19.88;;;;;;;;;;10452474;28;20044;-84
2023/02/10 11:40:52;;;;;;;24.95;14.75;;;;;;;;;;10454921;28;20108;-84
2023/02/10 11:46:00;;;;;;;28.42;14.10;;;;;;;;;;10446969;28;20511;-84
2023/02/10 11:51:07;;;;;;;22.20;11.10;;;;;;;;;;10445038;28;20047;-85
2023/02/10 11:56:20;;;;;;;23.25;13.13;;;;;;;;;;10441075;28;20090;-84
2023/02/10 12:01:44;;;;;;;16.83;9.23;;;;;;;;;;10457280;28;20173;-87
2023/02/10 12:06:57;;;;;;;14.35;8.18;;;;;;;;;;10457693;28;20067;-86
2023/02/10 12:12:10;;;;;;;15.75;9.50;;;;;;;;;;10463148;28;20049;-88
2023/02/10 12:17:26;;;;;;;18.83;11.70;;;;;;;;;;10459828;28;20060;-88
2023/02/10 12:22:35;;;;;;;;;;;;;;;;;;10448250;28;20466;-83
2023/02/10 12:28:02;;;;;;;28.60;14.38;;;;;;;;;;10453126;28;20024;-84
2023/02/10 12:33:27;;;;;;;23.83;13.10;;;;;;;;;;10450053;28;20562;-84
2023/02/10 12:38:44;;;;;;;31.95;16.95;;;;;;;;;;10462772;28;20063;-84
2023/02/10 12:43:59;;;;;;;31.80;16.27;;;;;;;;;;10448381;28;20451;-83
2023/02/10 12:49:15;;;;;;;28.47;14.43;;;;;;;;;;10472820;28;20041;-83
2023/02/10 12:54:22;;;;;;;26.07;13.70;;;;;;;;;;10452409;28;20362;-85
2023/02/10 12:59:37;;;;;;;32.88;13.75;;;;;;;;;;10464287;28;20041;-86
2023/02/10 13:04:47;;;;;;;29.25;15.10;;;;;;;;;;10451142;28;20392;-88
2023/02/10 13:09:54;;;;;;;27.35;13.65;;;;;;;;;;10463044;28;20124;-85
2023/02/10 13:15:05;;;;;;;25.02;12.35;;;;;;;;;;10458343;28;20042;-85
2023/02/10 13:20:29;;;;;;;25.50;12.05;;;;;;;;;;10461426;28;20048;-85
2023/02/10 13:25:39;;;;;;;28.30;14.13;;;;;;;;;;10456453;28;20155;-88
2023/02/10 13:31:04;;;;;;;22.70;11.85;;;;;;;;;;10462083;28;20056;-87
2023/02/10 13:36:16;;;;;;;27.50;13.77;;;;;;;;;;10446312;28;20033;-85
2023/02/10 13:46:54;;;;;;;14.93;8.70;;;;;;;;;;10441248;28;20083;-82
2023/02/10 13:52:08;;;;;;;16.13;8.25;;;;;;;;;;10450939;28;20071;-83
2023/02/10 13:57:27;;;;;;;23.63;11.48;;;;;;;;;;10437104;28;20045;-83
2023/02/10 14:02:31;;;;;;;27.00;10.65;;;;;;;;;;10455461;28;20044;-82
2023/02/10 14:07:37;;;;;;;21.35;10.75;;;;;;;;;;10438789;28;20043;-82
2023/02/10 14:12:42;;;;;;;20.80;11.13;;;;;;;;;;10443180;28;20045;-82
2023/02/10 14:17:57;;;;;;;18.45;9.30;;;;;;;;;;10450959;28;20155;-82
2023/02/10 14:23:07;;;;;;;17.10;8.73;;;;;;;;;;10452113;28;20394;-87
2023/02/10 14:28:22;;;;;;;19.98;9.40;;;;;;;;;;10444366;28;20092;-84
2023/02/10 14:33:28;;;;;;;13.40;7.03;;;;;;;;;;10443941;28;20041;-84
2023/02/10 14:38:35;;;;;;;17.60;8.45;;;;;;;;;;10451434;28;20032;-84
2023/02/10 14:43:40;;;;;;;15.75;7.35;;;;;;;;;;10446141;28;20415;-86
2023/02/10 14:48:44;;;;;;;20.80;9.70;;;;;;;;;;10457777;28;20048;-84
2023/02/10 14:53:49;;;;;;;13.90;8.13;;;;;;;;;;10456209;28;20131;-84
2023/02/10 14:58:53;;;;;;;16.17;9.77;;;;;;;;;;10459307;28;20040;-85
2023/02/10 15:03:59;;;;;;;12.85;6.53;;;;;;;;;;10441462;28;20106;-84
2023/02/10 15:09:06;;;;;;;17.48;9.32;;;;;;;;;;10442247;28;20040;-84
2023/02/10 15:14:17;;;;;;;9.07;5.47;;;;;;;;;;10451807;28;20405;-86
2023/02/10 15:19:21;;;;;;;7.88;4.20;;;;;;;;;;10575504;22;20076;-86
2023/02/10 15:24:28;;;;;;;12.52;5.43;;;;;;;;;;10476964;28;20054;-84
2023/02/10 15:29:37;;;;;;;9.27;5.03;;;;;;;;;;10478730;28;20128;-87
2023/02/10 15:34:40;;;;;;;8.63;5.07;;;;;;;;;;10478942;28;20044;-86
2023/02/10 15:39:55;;;;;;;12.00;6.47;;;;;;;;;;10502954;28;20078;-86
2023/02/10 15:50:32;;;;;;;15.02;7.40;;;;;;;;;;10339139;28;20054;-84
2023/02/10 15:55:38;;;;;;;14.65;8.18;;;;;;;;;;10319461;28;20050;-83
2023/02/10 16:00:44;;;;;;;;;;;;;;;;;;10333575;28;20050;-84
2023/02/10 16:05:47;;;;;;;6.40;3.92;;;;;;;;;;10317122;28;19921;-85
2023/02/10 16:10:52;;;;;;;7.07;3.83;;;;;;;;;;10324279;28;20705;-84
2023/02/10 16:15:56;;;;;;;6.68;4.15;;;;;;;;;;10309215;28;20456;-84
2023/02/10 16:21:01;;;;;;;6.72;3.88;;;;;;;;;;10340075;28;20088;-84
2023/02/10 16:26:06;;;;;;;8.30;4.57;;;;;;;;;;10316647;28;20169;-84
2023/02/10 16:31:09;;;;;;;7.90;4.45;;;;;;;;;;10333814;28;20572;-83
2023/02/10 16:36:15;;;;;;;7.32;4.40;;;;;;;;;;10320360;28;20068;-83
2023/02/10 16:41:21;;;;;;;7.03;4.13;;;;;;;;;;10334629;28;20713;-85
2023/02/10 16:46:24;;;;;;;6.90;4.03;;;;;;;;;;10318879;28;20222;-85
2023/02/10 16:51:29;;;;;;;9.20;4.28;;;;;;;;;;10327856;28;20042;-85
2023/02/10 16:56:34;;;;;;;7.10;4.43;;;;;;;;;;10337270;28;20046;-85
2023/02/10 17:01:37;;;;;;;7.60;4.88;;;;;;;;;;10330214;28;20073;-85
2023/02/10 17:06:45;;;;;;;7.10;4.20;;;;;;;;;;10323363;28;20378;-85
2023/02/10 17:11:50;;;;;;;6.43;4.10;;;;;;;;;;10353708;28;20054;-84
2023/02/10 17:16:54;;;;;;;6.57;3.90;;;;;;;;;;10347369;28;20046;-84
2023/02/10 17:21:57;;;;;;;8.10;4.45;;;;;;;;;;10334766;28;20058;-84
2023/02/10 17:27:02;;;;;;;8.30;5.13;;;;;;;;;;10320236;28;20062;-85
2023/02/10 17:32:06;;;;;;;7.53;4.15;;;;;;;;;;10343144;28;20068;-84
2023/02/10 17:37:10;;;;;;;8.52;4.68;;;;;;;;;;10324371;28;20038;-82
2023/02/10 17:42:17;;;;;;;10.00;5.60;;;;;;;;;;10338945;28;20705;-83
2023/02/10 17:47:21;;;;;;;9.68;5.95;;;;;;;;;;10331794;28;20068;-83
2023/02/10 17:52:24;;;;;;;10.07;5.95;;;;;;;;;;10340802;28;20042;-82
2023/02/10 17:57:29;;;;;;;9.60;6.03;;;;;;;;;;10334407;28;20042;-82
2023/02/10 18:02:32;;;;;;;11.05;5.80;;;;;;;;;;10338657;28;20173;-83
2023/02/10 18:07:36;;;;;;;11.35;6.25;;;;;;;;;;10337152;28;20130;-82
2023/02/10 18:12:41;;;;;;;9.73;4.90;;;;;;;;;;10336049;28;20045;-80
2023/02/10 18:17:45;;;;;;;11.15;6.13;;;;;;;;;;10335392;28;20041;-82
2023/02/10 18:22:49;;;;;;;10.57;5.75;;;;;;;;;;10333343;28;20058;-82
2023/02/10 18:33:25;;;;;;;14.70;7.63;;;;;;;;;;10974489;23;20046;-85
2023/02/10 18:38:28;;;;;;;17.13;9.07;;;;;;;;;;10352712;28;20069;-84
2023/02/10 18:43:33;;;;;;;18.27;9.95;;;;;;;;;;10318576;28;20037;-84
2023/02/10 18:48:37;;;;;;;14.30;8.35;;;;;;;;;;10326287;28;20626;-83
2023/02/10 18:53:41;;;;;;;16.27;8.65;;;;;;;;;;10321251;28;20069;-88
2023/02/10 18:58:44;;;;;;;15.45;7.88;;;;;;;;;;10300606;28;20046;-80
2023/02/10 19:03:49;;;;;;;19.63;10.10;;;;;;;;;;10299413;28;20060;-81
2023/02/10 19:08:53;;;;;;;18.98;9.82;;;;;;;;;;10300116;28;20549;-82
2023/02/10 19:13:57;;;;;;;21.05;11.43;;;;;;;;;;10297771;28;20371;-81
2023/02/10 19:19:02;;;;;;;21.27;10.23;;;;;;;;;;10323449;28;20136;-81
2023/02/10 19:24:06;;;;;;;21.63;10.68;;;;;;;;;;10282259;28;20853;-84
2023/02/10 19:29:10;;;;;;;20.45;10.85;;;;;;;;;;10302007;28;20125;-84
2023/02/10 19:34:17;;;;;;;23.83;10.82;;;;;;;;;;10291207;28;20109;-88
2023/02/10 19:39:21;;;;;;;21.50;10.63;;;;;;;;;;10309855;28;20050;-84
2023/02/10 19:44:25;;;;;;;24.08;11.20;;;;;;;;;;10292323;28;20684;-84
2023/02/10 19:49:30;;;;;;;24.75;10.98;;;;;;;;;;10302196;28;20046;-84
2023/02/10 19:54:33;;;;;;;27.05;12.10;;;;;;;;;;10316354;28;20722;-85
2023/02/10 19:59:40;;;;;;;24.52;11.43;;;;;;;;;;10309981;28;20046;-87
2023/02/10 20:04:47;;;;;;;24.20;11.80;;;;;;;;;;10328143;28;20073;-82
2023/02/10 20:09:50;;;;;;;22.65;11.40;;;;;;;;;;10329861;28;20401;-85
2023/02/10 20:14:54;;;;;;;22.13;10.65;;;;;;;;;;10305164;28;20125;-85
2023/02/10 20:20:01;;;;;;;16.52;8.18;;;;;;;;;;10316525;28;20045;-86
2023/02/10 20:25:05;;;;;;;15.93;8.07;;;;;;;;;;10312265;28;20042;-87
2023/02/10 20:30:09;;;;;;;14.93;7.68;;;;;;;;;;10315942;28;20544;-85
2023/02/10 20:35:15;;;;;;;13.75;7.32;;;;;;;;;;10309738;28;20046;-84
2023/02/10 20:40:18;;;;;;;16.98;8.50;;;;;;;;;;10331979;28;21101;-82
2023/02/10 20:45:22;;;;;;;14.68;8.23;;;;;;;;;;10311721;28;20064;-81
2023/02/10 20:50:29;;;;;;;15.45;8.02;;;;;;;;;;10314803;28;20156;-82
2023/02/10 20:55:32;;;;;;;14.57;7.25;;;;;;;;;;10298409;28;20053;-82
2023/02/10 21:00:35;;;;;;;15.68;7.30;;;;;;;;;;10304083;28;20035;-81
2023/02/10 21:05:41;;;;;;;12.32;6.30;;;;;;;;;;10285577;28;20505;-82
2023/02/10 21:10:45;;;;;;;12.88;6.25;;;;;;;;;;10301762;28;20185;-82
2023/02/10 21:15:51;;;;;;;10.88;6.20;;;;;;;;;;10301679;28;20042;-81
2023/02/10 21:21:01;;;;;;;12.20;5.97;;;;;;;;;;10299316;28;20100;-82
2023/02/10 21:26:05;;;;;;;10.27;5.43;;;;;;;;;;10318316;28;20061;-90
2023/02/10 21:31:11;;;;;;;10.02;6.10;;;;;;;;;;10318989;28;20050;-85
2023/02/10 21:36:21;;;;;;;11.77;6.40;;;;;;;;;;10287466;28;20073;-87
2023/02/10 21:41:45;;;;;;;11.35;6.63;;;;;;;;;;10310867;28;20039;-90
2023/02/10 21:46:52;;;;;;;12.32;6.25;;;;;;;;;;10319032;28;20525;-82
2023/02/10 21:51:57;;;;;;;11.20;6.07;;;;;;;;;;10319595;28;20513;-84
2023/02/10 21:57:02;;;;;;;14.75;7.35;;;;;;;;;;10314599;28;20136;-88
2023/02/10 22:02:06;;;;;;;11.35;6.78;;;;;;;;;;10334908;28;20138;-82
2023/02/10 22:07:11;;;;;;;14.65;8.10;;;;;;;;;;10307278;28;20450;-85
2023/02/10 22:12:14;;;;;;;18.05;9.20;;;;;;;;;;10300938;28;20050;-85
2023/02/10 22:17:18;;;;;;;18.40;8.82;;;;;;;;;;10305503;28;20236;-86
2023/02/10 22:22:42;;;;;;;16.90;9.02;;;;;;;;;;10306278;28;20049;-87
2023/02/10 22:27:46;;;;;;;15.07;8.55;;;;;;;;;;10289761;28;20042;-82
2023/02/10 22:32:49;;;;;;;14.95;8.45;;;;;;;;;;10308302;28;20561;-82
2023/02/10 22:37:54;;;;;;;12.05;7.40;;;;;;;;;;10303681;28;20587;-82
2023/02/10 22:43:06;;;;;;;14.02;7.65;;;;;;;;;;10293974;28;20461;-83
2023/02/10 22:48:10;;;;;;;12.18;6.88;;;;;;;;;;10313523;28;20050;-85
2023/02/10 22:53:15;;;;;;;12.88;8.00;;;;;;;;;;10301753;28;20070;-88
2023/02/10 22:58:18;;;;;;;14.82;8.18;;;;;;;;;;10324445;28;20074;-86
2023/02/10 23:03:22;;;;;;;13.75;7.95;;;;;;;;;;10297414;28;20453;-84
2023/02/10 23:08:27;;;;;;;13.93;7.93;;;;;;;;;;10316881;28;20365;-87
2023/02/10 23:13:31;;;;;;;13.10;7.93;;;;;;;;;;10321276;28;20046;-85
2023/02/10 23:18:34;;;;;;;16.70;8.13;;;;;;;;;;10297154;28;20048;-85
2023/02/10 23:23:39;;;;;;;14.93;7.85;;;;;;;;;;10320075;28;20776;-84
2023/02/10 23:28:43;;;;;;;14.20;8.15;;;;;;;;;;10292373;28;20053;-86
2023/02/10 23:33:52;;;;;;;14.95;8.05;;;;;;;;;;10307922;28;20042;-89
2023/02/10 23:38:57;;;;;;;12.32;7.10;;;;;;;;;;10302070;28;20051;-86
2023/02/10 23:44:04;;;;;;;13.05;7.45;;;;;;;;;;10296735;28;20046;-81
2023/02/10 23:49:08;;;;;;;10.13;6.50;;;;;;;;;;10296581;28;20042;-81
2023/02/10 23:54:13;;;;;;;11.73;7.22;;;;;;;;;;10312981;28;20042;-80
2023/02/10 23:59:16;;;;;;;14.98;6.43;;;;;;;;;;10318385;28;20092;-81
